Time;durP1;ratioP1;P1;durP2;ratioP2;P2;SDS_P1;SDS_P2;PMS_P1;PMS_P2;Temp;Humidity;BMP_temperature;BMP_pressure;BME280_temperature;BME280_humidity;BME280_pressure;Samples;Min_cycle;Max_cycle;Signal;HPM_P1;HPM_P2
2024/01/07 00:01:50;;;;;;;3.28;2.30;;;;;;;16.00;46.06;92253.38;4952207;28;20036;-92
2024/01/07 00:04:18;;;;;;;2.58;1.67;;;;;;;16.01;45.99;92251.38;4958288;28;20039;-92
2024/01/07 00:06:49;;;;;;;4.35;2.35;;;;;;;15.98;45.82;92253.16;4957065;28;20047;-93
2024/01/07 00:09:18;;;;;;;2.45;1.90;;;;;;;16.07;45.93;92260.91;4996949;28;20038;-92
2024/01/07 00:11:45;;;;;;;3.58;1.92;;;;;;;16.08;45.41;92258.91;5035607;28;20120;-92
2024/01/07 00:14:13;;;;;;;3.47;1.77;;;;;;;16.10;45.68;92257.13;5002806;28;20509;-92
2024/01/07 00:16:42;;;;;;;3.55;2.20;;;;;;;16.10;45.62;92256.41;5004000;28;20136;-92
2024/01/07 00:19:09;;;;;;;4.03;2.00;;;;;;;16.04;45.83;92251.03;5013083;28;20040;-91
2024/01/07 00:21:36;;;;;;;3.83;2.00;;;;;;;16.01;45.70;92254.09;5021444;28;20042;-92
2024/01/07 00:24:03;;;;;;;1.92;1.55;;;;;;;16.01;45.77;92259.56;5038835;28;20043;-92
2024/01/07 00:26:29;;;;;;;3.25;2.08;;;;;;;16.04;45.65;92256.50;5004810;28;20065;-92
2024/01/07 00:28:56;;;;;;;3.00;1.80;;;;;;;16.10;45.68;92253.66;5012369;28;20313;-92
2024/01/07 00:31:26;;;;;;;2.95;1.80;;;;;;;16.05;45.77;92249.78;5015717;28;20102;-92
2024/01/07 00:33:56;;;;;;;3.38;2.10;;;;;;;16.03;45.69;92252.28;5035152;28;20117;-92
2024/01/07 00:36:22;;;;;;;3.00;2.17;;;;;;;16.03;45.90;92257.75;5007230;28;20041;-92
2024/01/07 00:38:48;;;;;;;2.50;2.10;;;;;;;16.04;46.03;92258.47;4971634;28;20047;-91
2024/01/07 00:41:17;;;;;;;3.28;1.88;;;;;;;16.06;45.80;92245.81;4977657;28;20052;-91
2024/01/07 00:43:45;;;;;;;3.10;1.83;;;;;;;16.06;45.79;92256.69;4999400;28;20109;-93
2024/01/07 00:46:13;;;;;;;2.40;1.90;;;;;;;16.04;45.65;92248.31;4987082;28;20512;-93
2024/01/07 00:48:39;;;;;;;3.40;2.20;;;;;;;15.97;46.00;92256.41;4976116;28;20045;-92
2024/01/07 00:51:07;;;;;;;3.42;2.30;;;;;;;16.01;46.19;92245.91;4948350;28;20046;-92
2024/01/07 00:53:34;;;;;;;5.53;2.28;;;;;;;16.09;45.87;92249.47;4974336;28;20391;-92
2024/01/07 00:56:02;;;;;;;3.42;2.35;;;;;;;16.01;45.52;92243.94;4978171;28;20095;-93
2024/01/07 00:58:28;;;;;;;2.78;2.00;;;;;;;16.03;45.59;92246.09;4951535;28;20050;-93
2024/01/07 01:00:56;;;;;;;3.45;2.03;;;;;;;16.05;45.44;92255.22;4965865;28;20101;-93
2024/01/07 01:03:27;;;;;;;4.60;2.38;;;;;;;16.00;45.78;92258.81;4968843;28;20039;-92
2024/01/07 01:05:54;;;;;;;3.58;2.05;;;;;;;16.10;45.31;92261.84;4958685;28;20082;-92
2024/01/07 01:08:23;;;;;;;3.08;2.00;;;;;;;16.06;45.64;92264.16;4949649;28;20053;-93
2024/01/07 01:10:48;;;;;;;2.38;1.60;;;;;;;15.98;45.66;92261.31;4968867;28;20053;-93
2024/01/07 01:13:16;;;;;;;3.60;1.70;;;;;;;16.02;45.78;92264.44;4989370;28;20049;-91
2024/01/07 01:15:43;;;;;;;2.72;2.00;;;;;;;15.98;45.99;92269.50;4985490;28;20041;-93
2024/01/07 01:18:10;;;;;;;3.35;1.70;;;;;;;15.98;45.94;92264.06;4977139;28;20093;-93
2024/01/07 01:20:38;;;;;;;2.85;1.80;;;;;;;16.00;46.06;92272.44;4998691;28;20053;-93
2024/01/07 01:23:05;;;;;;;4.18;2.10;;;;;;;16.03;45.51;92270.63;5010910;28;20049;-92
2024/01/07 01:25:30;;;;;;;3.17;2.13;;;;;;;16.02;45.69;92269.19;4997098;28;20041;-92
2024/01/07 01:28:07;;;;;;;2.25;1.70;;;;;;;15.99;45.81;92267.50;4988758;28;20042;-92
2024/01/07 01:30:33;;;;;;;2.30;1.80;;;;;;;16.03;46.00;92273.38;4998755;28;20034;-91
2024/01/07 01:33:03;;;;;;;2.33;1.70;;;;;;;16.01;45.70;92275.91;5009345;28;20045;-92
2024/01/07 01:35:29;;;;;;;3.10;1.80;;;;;;;16.12;45.34;92267.50;4997450;28;20040;-92
2024/01/07 01:37:55;;;;;;;3.28;1.80;;;;;;;16.08;45.70;92269.81;5008939;28;20080;-91
2024/01/07 01:40:21;;;;;;;2.92;2.00;;;;;;;15.99;45.74;92276.44;4933151;28;20050;-92
2024/01/07 01:42:50;;;;;;;2.17;1.70;;;;;;;15.97;46.01;92273.47;4956449;28;20046;-91
2024/01/07 01:45:16;;;;;;;2.80;1.77;;;;;;;16.05;46.01;92271.59;4978472;28;20034;-92
2024/01/07 01:47:43;;;;;;;5.07;2.10;;;;;;;16.01;45.44;92271.19;4981337;28;20050;-93
2024/01/07 01:50:11;;;;;;;3.45;1.98;;;;;;;16.03;45.76;92265.19;4980088;28;20111;-92
2024/01/07 01:52:38;;;;;;;3.90;2.35;;;;;;;16.01;45.84;92265.00;4992756;28;20038;-90
2024/01/07 01:55:11;;;;;;;3.28;1.95;;;;;;;15.98;45.74;92261.31;4962814;28;20225;-90
2024/01/07 01:57:36;;;;;;;3.05;1.83;;;;;;;16.04;45.48;92261.94;4980345;28;20047;-91
2024/01/07 02:00:05;;;;;;;3.20;2.20;;;;;;;16.00;45.78;92255.34;4994536;28;20042;-91
2024/01/07 02:02:37;;;;;;;2.83;1.90;;;;;;;16.04;45.75;92248.31;4985335;28;20133;-91
2024/01/07 02:05:05;;;;;;;2.90;1.90;;;;;;;16.03;45.51;92255.03;4996826;28;20033;-93
2024/01/07 02:07:33;;;;;;;2.55;1.60;;;;;;;16.06;45.50;92248.53;4967711;28;20047;-92
2024/01/07 02:10:00;;;;;;;3.85;2.10;;;;;;;16.01;45.79;92252.09;4973970;28;20609;-91
2024/01/07 02:12:29;;;;;;;2.47;2.00;;;;;;;16.01;45.71;92254.84;5006798;28;20046;-92
2024/01/07 02:14:56;;;;;;;3.13;2.22;;;;;;;16.01;45.81;92251.38;4949402;28;20077;-91
2024/01/07 02:17:21;;;;;;;2.72;2.05;;;;;;;16.03;45.71;92263.19;4951641;28;20039;-91
2024/01/07 02:19:47;;;;;;;2.83;1.50;;;;;;;16.01;45.31;92265.75;4940055;28;20188;-90
2024/01/07 02:22:20;;;;;;;3.63;1.92;;;;;;;16.07;45.65;92268.34;4935494;28;20422;-91
2024/01/07 02:24:49;;;;;;;3.20;2.00;;;;;;;16.05;45.57;92259.94;4931322;29;20800;-91
2024/01/07 02:27:16;;;;;;;3.78;1.70;;;;;;;16.15;45.57;92263.75;4877306;28;20458;-92
2024/01/07 02:29:43;;;;;;;2.88;1.88;;;;;;;16.08;45.59;92272.53;4945393;28;20578;-91
2024/01/07 02:32:13;;;;;;;3.05;1.77;;;;;;;16.09;45.73;92269.28;4950297;28;20427;-92
2024/01/07 02:34:43;;;;;;;2.67;1.80;;;;;;;16.10;45.22;92276.22;4965069;28;20031;-91
2024/01/07 02:37:08;;;;;;;2.42;1.63;;;;;;;16.10;45.58;92276.22;4974095;28;20508;-91
2024/01/07 02:39:34;;;;;;;2.38;1.80;;;;;;;16.08;45.66;92281.44;4983693;28;20046;-92
2024/01/07 02:42:01;;;;;;;2.47;1.77;;;;;;;16.03;46.10;92276.09;4988588;28;20038;-92
2024/01/07 02:44:28;;;;;;;3.60;2.33;;;;;;;16.07;45.53;92282.72;4991051;28;20125;-92
2024/01/07 02:46:55;;;;;;;2.85;2.13;;;;;;;16.07;45.55;92279.97;4979164;28;20049;-91
2024/01/07 02:49:21;;;;;;;2.33;1.65;;;;;;;16.08;45.33;92286.16;4953447;28;20042;-90
2024/01/07 02:51:49;;;;;;;2.20;1.50;;;;;;;16.06;45.50;92286.69;4971210;28;20045;-91
2024/01/07 02:54:16;;;;;;;3.40;2.00;;;;;;;15.98;45.85;92288.59;4969290;28;20120;-91
2024/01/07 02:56:42;;;;;;;3.78;1.73;;;;;;;15.99;45.74;92281.88;4988402;28;20700;-92
2024/01/07 02:59:08;;;;;;;2.55;1.73;;;;;;;16.06;45.58;92283.22;5003021;28;20072;-92
2024/01/07 03:01:40;;;;;;;2.67;1.77;;;;;;;16.07;45.30;92282.72;4983973;28;20041;-91
2024/01/07 03:04:07;;;;;;;2.30;1.70;;;;;;;16.05;45.08;92274.31;4988840;28;20484;-90
2024/01/07 03:06:35;;;;;;;3.53;1.80;;;;;;;16.02;45.44;92286.25;4920443;28;20122;-90
2024/01/07 03:09:00;;;;;;;2.55;1.85;;;;;;;15.96;45.73;92285.66;4952519;28;20122;-92
2024/01/07 03:11:29;;;;;;;2.65;1.52;;;;;;;16.00;45.85;92286.06;4923500;28;20069;-90
2024/01/07 03:13:57;;;;;;;2.47;1.60;;;;;;;16.00;45.73;92280.63;4975872;28;20505;-90
2024/01/07 03:16:24;;;;;;;2.60;1.90;;;;;;;16.04;45.42;92270.13;4973041;28;20051;-91
2024/01/07 03:18:52;;;;;;;2.97;1.88;;;;;;;16.00;45.42;92280.63;4952896;28;20300;-91
2024/01/07 03:21:20;;;;;;;2.22;1.52;;;;;;;16.05;45.63;92279.78;4991785;28;20047;-91
2024/01/07 03:23:48;;;;;;;1.80;1.30;;;;;;;15.99;45.66;92275.69;4971370;28;20043;-91
2024/01/07 03:26:16;;;;;;;2.92;1.90;;;;;;;16.00;45.84;92282.63;4939772;28;20062;-91
2024/01/07 03:28:43;;;;;;;2.85;1.80;;;;;;;16.00;45.72;92274.44;4940890;28;20137;-91
2024/01/07 03:31:23;;;;;;;3.50;1.75;;;;;;;16.06;45.61;92283.22;5006521;28;20051;-92
2024/01/07 03:33:48;;;;;;;2.22;1.77;;;;;;;16.01;45.87;92286.81;4997201;28;20039;-91
2024/01/07 03:36:23;;;;;;;2.25;1.52;;;;;;;16.02;45.59;92288.28;4978164;28;20049;-91
2024/01/07 03:38:48;;;;;;;3.50;1.83;;;;;;;16.04;45.75;92299.38;4976627;28;20038;-90
2024/01/07 03:41:19;;;;;;;2.47;1.85;;;;;;;16.05;45.35;92289.94;4985363;28;20034;-91
2024/01/07 03:43:48;;;;;;;2.92;2.05;;;;;;;16.10;45.12;92295.28;4986925;28;20441;-93
2024/01/07 03:46:14;;;;;;;2.78;1.90;;;;;;;16.06;45.48;92299.59;4946819;28;20056;-93
2024/01/07 03:48:48;;;;;;;2.88;1.80;;;;;;;16.02;45.59;92289.00;4971102;28;20054;-91
2024/01/07 03:51:15;;;;;;;2.40;1.60;;;;;;;16.07;45.41;92296.34;4935520;28;20038;-92
2024/01/07 03:53:43;;;;;;;2.28;1.70;;;;;;;16.10;45.08;92297.28;4935297;28;20344;-93
2024/01/07 03:56:12;;;;;;;3.90;1.80;;;;;;;16.06;45.29;92302.31;4968536;28;20107;-92
2024/01/07 03:58:43;;;;;;;2.15;1.48;;;;;;;16.01;45.33;92305.88;4971220;28;20048;-91
2024/01/07 04:01:18;;;;;;;2.95;2.00;;;;;;;16.06;45.46;92305.03;4982246;28;20034;-93
2024/01/07 04:03:46;;;;;;;3.17;1.73;;;;;;;16.05;45.58;92312.47;4995357;28;20050;-92
2024/01/07 04:06:14;;;;;;;2.45;1.63;;;;;;;16.00;45.47;92316.06;4980924;28;20046;-92
2024/01/07 04:08:42;;;;;;;2.42;1.75;;;;;;;16.07;45.41;92314.69;4973362;28;20053;-91
2024/01/07 04:11:11;;;;;;;2.65;2.00;;;;;;;16.01;45.69;92319.53;4972077;28;20042;-92
2024/01/07 04:13:40;;;;;;;;;;;;;;;16.02;45.50;92312.81;4993247;28;20050;-92
2024/01/07 04:16:16;;;;;;;3.63;1.50;;;;;;;16.05;45.50;92323.38;4998093;28;19948;-93
2024/01/07 04:18:45;;;;;;;2.17;1.58;;;;;;;16.07;44.95;92307.25;4947243;29;20039;-92
2024/01/07 04:21:13;;;;;;;1.73;1.40;;;;;;;16.01;45.64;92314.06;4902108;29;20066;-92
2024/01/07 04:23:43;;;;;;;2.03;1.63;;;;;;;16.06;45.42;92315.94;4894603;29;20841;-92
2024/01/07 04:26:12;;;;;;;2.15;1.33;;;;;;;16.02;45.52;92318.97;4888684;29;20040;-92
2024/01/07 04:28:42;;;;;;;3.45;1.88;;;;;;;16.02;45.73;92312.81;4887955;29;20048;-92
2024/01/07 04:31:09;;;;;;;2.63;1.67;;;;;;;16.10;45.31;92324.56;4891684;29;20040;-92
2024/01/07 04:33:36;;;;;;;2.00;1.75;;;;;;;16.05;45.63;92322.66;4900293;29;20056;-92
2024/01/07 04:36:06;;;;;;;1.70;1.60;;;;;;;16.02;45.32;92324.41;4845034;29;20073;-92
2024/01/07 04:38:36;;;;;;;2.33;1.67;;;;;;;15.96;45.48;92325.78;4803962;29;20049;-92
2024/01/07 04:41:16;;;;;;;2.58;1.67;;;;;;;15.98;46.08;92326.75;4832923;29;20073;-93
2024/01/07 04:43:43;;;;;;;2.88;1.70;;;;;;;15.98;45.42;92334.91;4869293;29;20071;-93
2024/01/07 04:46:11;;;;;;;4.65;2.42;;;;;;;16.03;45.26;92341.50;4880731;29;20036;-91
2024/01/07 04:48:37;;;;;;;3.10;1.48;;;;;;;15.96;45.64;92329.25;4870187;29;20045;-92
2024/01/07 04:51:03;;;;;;;3.17;1.70;;;;;;;16.10;45.40;92335.47;4863216;29;20078;-93
2024/01/07 04:53:33;;;;;;;2.45;1.70;;;;;;;16.02;45.44;92338.06;4855430;29;20045;-92
2024/01/07 04:56:02;;;;;;;2.38;1.70;;;;;;;16.09;45.48;92342.16;4874544;29;20048;-92
2024/01/07 04:59:01;;;;;;;2.55;2.03;;;;;;;16.09;45.58;92351.06;4888131;29;20052;-92
2024/01/07 05:01:33;;;;;;;2.95;1.40;;;;;;;16.04;45.47;92345.72;4869906;29;20153;-91
2024/01/07 05:04:01;;;;;;;1.85;1.42;;;;;;;16.05;45.44;92347.19;4896361;29;20048;-93
2024/01/07 05:06:27;;;;;;;2.90;1.63;;;;;;;16.02;45.33;92348.97;4899189;29;20076;-93
2024/01/07 05:09:01;;;;;;;2.65;1.63;;;;;;;16.09;44.91;92347.63;4874315;29;20052;-92
2024/01/07 05:11:27;;;;;;;4.10;1.80;;;;;;;16.09;45.33;92351.06;4856792;29;20432;-92
2024/01/07 05:13:52;;;;;;;2.25;1.52;;;;;;;16.05;44.82;92352.63;4881761;29;20551;-93
2024/01/07 05:16:19;;;;;;;1.88;1.40;;;;;;;16.02;45.58;92362.59;4881300;29;20045;-92
2024/01/07 05:18:48;;;;;;;3.92;1.92;;;;;;;16.03;45.15;92357.88;4857990;29;20145;-93
2024/01/07 05:21:20;;;;;;;2.33;1.50;;;;;;;16.08;45.26;92355.06;4834349;29;20520;-92
2024/01/07 05:23:49;;;;;;;1.98;1.50;;;;;;;16.06;45.12;92356.84;4844404;29;20088;-94
2024/01/07 05:26:15;;;;;;;2.38;1.80;;;;;;;16.04;45.31;92356.63;4812944;29;20050;-93
2024/01/07 05:28:41;;;;;;;2.45;1.60;;;;;;;16.01;45.80;92363.88;4846786;29;20498;-93
2024/01/07 05:31:15;;;;;;;2.67;1.75;;;;;;;16.05;45.31;92360.81;4877289;29;20043;-92
2024/01/07 05:33:46;;;;;;;1.85;1.50;;;;;;;16.03;45.32;92355.13;4896096;29;20124;-92
2024/01/07 05:36:12;;;;;;;1.95;1.40;;;;;;;16.13;45.13;92361.69;4842029;29;20047;-92
2024/01/07 05:38:41;;;;;;;2.65;1.58;;;;;;;16.05;45.87;92363.53;4849428;29;20045;-91
2024/01/07 05:41:09;;;;;;;2.67;1.80;;;;;;;16.08;45.39;92368.69;4838822;29;20577;-92
2024/01/07 05:43:37;;;;;;;2.38;1.73;;;;;;;16.01;45.33;92365.84;4879110;29;20568;-94
2024/01/07 05:46:08;;;;;;;3.00;1.50;;;;;;;16.06;45.19;92373.19;4884040;29;20168;-92
2024/01/07 05:48:44;;;;;;;;;;;;;;;16.00;45.50;92372.56;4899851;29;20131;-92
2024/01/07 05:51:12;;;;;;;1.80;1.40;;;;;;;16.06;45.01;92379.38;4936582;28;20058;-92
2024/01/07 05:53:53;;;;;;;2.17;1.50;;;;;;;16.03;45.30;92382.41;4988474;28;20037;-93
2024/01/07 05:56:21;;;;;;;;;;;;;;;16.01;45.32;92384.94;4996328;28;20038;-93
2024/01/07 05:58:49;;;;;;;2.38;1.77;;;;;;;15.99;45.34;92385.47;5012888;28;20435;-93
2024/01/07 06:01:21;;;;;;;2.10;1.65;;;;;;;16.01;45.30;92379.47;4952177;28;20112;-92
2024/01/07 06:03:49;;;;;;;2.25;1.75;;;;;;;16.07;45.08;92397.19;4936381;28;20043;-93
2024/01/07 06:06:15;;;;;;;3.60;2.17;;;;;;;15.98;45.59;92388.69;4932525;28;20138;-91
2024/01/07 06:08:43;;;;;;;2.08;1.65;;;;;;;15.98;45.53;92403.06;4955853;28;20043;-92
2024/01/07 06:11:18;;;;;;;2.83;1.58;;;;;;;15.99;45.17;92396.34;4929573;29;20513;-92
2024/01/07 06:13:45;;;;;;;2.30;1.52;;;;;;;16.04;45.78;92402.94;4894302;29;20045;-92
2024/01/07 06:16:13;;;;;;;3.55;1.70;;;;;;;16.00;45.23;92399.81;4877133;29;20037;-93
2024/01/07 06:18:42;;;;;;;2.20;1.73;;;;;;;15.99;45.48;92398.34;4883000;29;20040;-93
2024/01/07 06:21:07;;;;;;;2.60;1.77;;;;;;;16.01;45.34;92401.28;4874757;28;20061;-92
2024/01/07 06:23:35;;;;;;;1.83;1.38;;;;;;;16.04;45.52;92394.78;4932067;28;20043;-92
2024/01/07 06:26:04;;;;;;;2.05;1.60;;;;;;;16.04;45.64;92400.22;4975647;28;20413;-92
2024/01/07 06:28:34;;;;;;;2.53;1.65;;;;;;;16.01;45.34;92406.75;4923711;28;20066;-92
2024/01/07 06:31:04;;;;;;;2.88;1.73;;;;;;;15.97;45.38;92414.47;4944104;28;20100;-92
2024/01/07 06:33:38;;;;;;;2.35;1.80;;;;;;;16.03;45.51;92409.66;4933189;28;20054;-92
2024/01/07 06:36:06;;;;;;;1.70;1.35;;;;;;;16.08;44.98;92417.75;4955292;28;20120;-93
2024/01/07 06:38:32;;;;;;;2.33;1.77;;;;;;;16.07;45.15;92418.28;4975230;28;20074;-92
2024/01/07 06:41:05;;;;;;;2.20;1.65;;;;;;;16.05;45.02;92426.25;4967871;28;20038;-92
2024/01/07 06:43:35;;;;;;;2.47;1.70;;;;;;;16.05;45.34;92426.25;4996253;28;20096;-93
2024/01/07 06:46:04;;;;;;;2.85;1.90;;;;;;;16.02;45.32;92430.72;5015737;28;20109;-93
2024/01/07 06:48:31;;;;;;;1.85;1.50;;;;;;;16.05;44.84;92432.44;4980837;28;20068;-92
2024/01/07 06:50:59;;;;;;;2.03;1.33;;;;;;;16.05;45.82;92428.97;4982377;28;20050;-92
2024/01/07 06:53:28;;;;;;;1.90;1.60;;;;;;;16.06;44.97;92430.44;4951591;28;20481;-93
2024/01/07 06:55:57;;;;;;;2.38;1.60;;;;;;;16.01;45.29;92448.38;4981327;28;20073;-92
2024/01/07 06:58:23;;;;;;;2.78;1.40;;;;;;;16.03;45.05;92436.91;4935851;28;20110;-92
2024/01/07 07:00:50;;;;;;;2.15;1.70;;;;;;;16.00;45.31;92449.63;4952416;28;20742;-93
2024/01/07 07:03:20;;;;;;;1.80;1.48;;;;;;;16.03;45.31;92448.56;4938618;28;20095;-93
2024/01/07 07:05:56;;;;;;;2.30;1.70;;;;;;;16.06;45.41;92449.50;4964031;28;20476;-92
2024/01/07 07:08:24;;;;;;;2.67;1.67;;;;;;;16.02;44.93;92449.81;4968169;28;20051;-92
2024/01/07 07:10:49;;;;;;;3.67;1.80;;;;;;;16.11;45.30;92456.88;4980171;28;20110;-93
2024/01/07 07:13:18;;;;;;;3.13;1.35;;;;;;;16.03;45.30;92450.56;4961075;28;20492;-92
2024/01/07 07:15:44;;;;;;;3.88;1.60;;;;;;;16.03;45.31;92459.47;4941114;28;20074;-93
2024/01/07 07:18:11;;;;;;;2.22;1.58;;;;;;;16.10;45.07;92460.88;4925600;28;20044;-92
2024/01/07 07:20:38;;;;;;;2.78;1.40;;;;;;;16.05;45.27;92461.66;4921132;29;20039;-93
2024/01/07 07:23:04;;;;;;;3.03;1.58;;;;;;;16.05;45.34;92454.22;4953076;28;20051;-92
2024/01/07 07:25:30;;;;;;;2.65;1.92;;;;;;;16.07;44.86;92456.44;4938203;28;20174;-93
2024/01/07 07:27:59;;;;;;;2.65;1.70;;;;;;;16.06;44.92;92474.78;4913887;28;20401;-93
2024/01/07 07:30:26;;;;;;;2.20;1.50;;;;;;;16.07;45.02;92475.53;4877507;29;20045;-93
2024/01/07 07:32:56;;;;;;;2.33;1.50;;;;;;;16.05;45.36;92478.03;4903500;29;20069;-93
2024/01/07 07:35:26;;;;;;;2.60;1.70;;;;;;;16.02;44.91;92468.91;4914523;29;20044;-92
2024/01/07 07:37:55;;;;;;;2.33;1.57;;;;;;;16.06;45.14;92474.06;4908810;29;20223;-92
2024/01/07 07:40:23;;;;;;;2.35;1.65;;;;;;;16.03;45.30;92478.53;4901959;29;20052;-92
2024/01/07 07:42:54;;;;;;;2.30;1.70;;;;;;;15.95;45.36;92488.59;4916395;29;20045;-92
2024/01/07 07:45:20;;;;;;;2.47;1.80;;;;;;;16.04;45.21;92485.47;4895030;29;20048;-93
2024/01/07 07:47:49;;;;;;;1.90;1.50;;;;;;;16.04;45.00;92487.47;4912952;29;20044;-92
2024/01/07 07:50:16;;;;;;;2.38;2.00;;;;;;;16.00;45.04;92487.78;4946302;28;20040;-92
2024/01/07 07:52:50;;;;;;;1.70;1.45;;;;;;;16.05;44.79;92486.94;4943745;28;20609;-92
2024/01/07 07:55:19;;;;;;;1.95;1.40;;;;;;;16.10;44.74;92497.03;4942268;28;20055;-92
2024/01/07 07:57:47;;;;;;;2.33;1.75;;;;;;;15.97;45.38;92498.97;4970416;28;20539;-92
2024/01/07 08:00:18;;;;;;;2.55;1.88;;;;;;;16.05;45.27;92518.91;4997275;28;20651;-92
2024/01/07 08:02:46;;;;;;;2.00;1.67;;;;;;;16.06;45.22;92502.06;4974006;28;20053;-92
2024/01/07 08:05:29;;;;;;;1.73;1.48;;;;;;;16.09;44.91;92513.91;4994665;28;20041;-92
2024/01/07 08:08:06;;;;;;;1.85;1.50;;;;;;;16.06;44.95;92512.22;4971310;28;20094;-92
2024/01/07 08:10:35;;;;;;;3.08;1.70;;;;;;;16.05;45.27;92514.22;4947947;28;20027;-93
2024/01/07 08:13:01;;;;;;;2.22;1.20;;;;;;;16.06;44.96;92528.56;4933607;28;20039;-93
2024/01/07 08:15:28;;;;;;;2.55;1.70;;;;;;;16.06;44.88;92523.84;4891083;29;20511;-92
2024/01/07 08:17:57;;;;;;;2.33;1.63;;;;;;;16.07;45.22;92516.41;4868368;29;20400;-93
2024/01/07 08:20:26;;;;;;;2.35;1.67;;;;;;;16.04;45.17;92531.06;4877098;29;20088;-92
2024/01/07 08:22:56;;;;;;;2.28;1.60;;;;;;;16.02;45.27;92528.16;4834344;29;20034;-92
2024/01/07 08:25:33;;;;;;;2.22;1.40;;;;;;;16.06;44.76;92532.03;4806241;29;20118;-93
2024/01/07 08:27:58;;;;;;;2.45;1.30;;;;;;;16.03;45.23;92532.34;4804008;29;20039;-93
2024/01/07 08:30:27;;;;;;;2.08;1.67;;;;;;;16.08;45.18;92540.44;4834522;29;20088;-93
2024/01/07 08:32:54;;;;;;;1.52;1.33;;;;;;;16.04;45.21;92536.53;4813518;29;20042;-92
2024/01/07 08:35:23;;;;;;;2.22;1.58;;;;;;;16.09;44.67;92541.19;4793993;29;20059;-92
2024/01/07 08:37:50;;;;;;;2.10;1.70;;;;;;;16.08;44.75;92545.91;4792761;29;20066;-92
2024/01/07 08:40:18;;;;;;;1.58;1.38;;;;;;;16.11;44.77;92547.59;4806862;29;20061;-92
2024/01/07 08:42:53;;;;;;;2.20;1.52;;;;;;;16.13;44.55;92552.53;4821797;29;20113;-93
2024/01/07 08:45:29;;;;;;;3.63;2.15;;;;;;;15.98;45.17;92555.72;4819623;29;20051;-93
2024/01/07 08:48:06;;;;;;;2.35;1.70;;;;;;;16.03;44.70;92554.13;4817669;29;20042;-93
2024/01/07 08:50:34;;;;;;;2.00;1.60;;;;;;;16.00;45.17;92566.84;4797873;29;20055;-93
2024/01/07 08:53:00;;;;;;;2.22;1.50;;;;;;;16.07;44.76;92555.31;4877810;29;20060;-92
2024/01/07 08:55:27;;;;;;;1.75;1.40;;;;;;;16.06;44.68;92566.75;4918451;29;20406;-93
2024/01/07 08:57:56;;;;;;;1.77;1.55;;;;;;;16.05;45.16;92570.72;4901339;29;20040;-92
2024/01/07 09:00:25;;;;;;;2.78;1.88;;;;;;;16.02;45.22;92567.03;4878676;29;20049;-92
2024/01/07 09:03:00;;;;;;;1.80;1.30;;;;;;;16.08;44.60;92583.31;4922367;29;20080;-92
2024/01/07 09:05:28;;;;;;;2.78;1.48;;;;;;;16.02;45.09;92575.22;4908420;29;20629;-93
2024/01/07 09:07:57;;;;;;;2.25;1.48;;;;;;;15.98;45.19;92585.69;4952275;28;20061;-92
2024/01/07 09:10:24;;;;;;;2.33;1.40;;;;;;;16.06;45.35;92585.81;4957001;28;20569;-92
2024/01/07 09:12:53;;;;;;;2.80;1.77;;;;;;;16.06;44.90;92589.28;4929433;29;20499;-93
2024/01/07 09:15:35;;;;;;;2.00;1.50;;;;;;;16.02;45.33;92588.84;4930800;29;20043;-92
2024/01/07 09:18:03;;;;;;;2.60;1.80;;;;;;;16.08;44.66;92583.31;4951616;29;20150;-93
2024/01/07 09:20:31;;;;;;;2.22;1.73;;;;;;;16.10;44.86;92587.00;4937686;28;20215;-92
2024/01/07 09:22:59;;;;;;;2.15;1.70;;;;;;;16.08;45.07;92588.78;4958692;28;20553;-92
2024/01/07 09:25:30;;;;;;;2.03;1.40;;;;;;;16.10;44.65;92592.47;4922745;29;20043;-93
2024/01/07 09:28:05;;;;;;;;;;;;;;;16.07;44.83;92604.41;4941667;28;20065;-92
2024/01/07 09:30:41;;;;;;;1.85;1.30;;;;;;;16.07;44.62;92600.94;4966420;28;20009;-93
2024/01/07 09:33:08;;;;;;;4.25;1.58;;;;;;;16.07;45.05;92598.94;4969434;28;20203;-92
2024/01/07 09:35:35;;;;;;;3.55;1.63;;;;;;;16.01;45.20;92598.28;4927142;28;20074;-92
2024/01/07 09:38:01;;;;;;;2.97;1.52;;;;;;;16.13;44.77;92606.31;4930608;29;20070;-92
2024/01/07 09:40:28;;;;;;;1.70;1.15;;;;;;;16.06;44.88;92604.91;4925564;29;20487;-91
2024/01/07 09:42:54;;;;;;;2.10;1.83;;;;;;;16.03;44.96;92606.66;4956226;28;20047;-92
2024/01/07 09:45:23;;;;;;;2.05;1.73;;;;;;;16.06;44.95;92607.63;4962011;28;20187;-91
2024/01/07 09:47:51;;;;;;;2.53;1.58;;;;;;;16.08;44.93;92602.41;4980733;28;20038;-92
2024/01/07 09:50:21;;;;;;;1.85;1.65;;;;;;;16.17;44.46;92607.50;4934531;29;20035;-91
2024/01/07 09:52:47;;;;;;;2.38;1.80;;;;;;;16.08;44.81;92605.88;4940963;29;20043;-91
2024/01/07 09:55:34;;;;;;;1.80;1.42;;;;;;;16.14;44.61;92605.81;4947083;28;20071;-91
2024/01/07 09:58:01;;;;;;;2.05;1.42;;;;;;;16.16;44.81;92597.13;4914975;29;20107;-92
2024/01/07 10:00:34;;;;;;;2.55;1.67;;;;;;;16.04;44.77;92604.69;4932596;28;20043;-92
2024/01/07 10:03:05;;;;;;;2.10;1.40;;;;;;;16.07;44.93;92596.22;4956836;28;20036;-91
2024/01/07 10:05:34;;;;;;;2.17;1.52;;;;;;;16.09;44.87;92606.59;4947152;28;20430;-91
2024/01/07 10:08:02;;;;;;;2.95;1.63;;;;;;;16.09;45.13;92607.34;4919901;29;20039;-90
2024/01/07 10:10:28;;;;;;;2.83;1.80;;;;;;;16.10;44.58;92610.81;4884367;29;20237;-91
2024/01/07 10:12:56;;;;;;;2.28;1.58;;;;;;;16.16;44.44;92605.28;4884813;29;20040;-91
2024/01/07 10:15:34;;;;;;;1.58;1.35;;;;;;;16.14;44.49;92610.53;4908343;29;20053;-93
2024/01/07 10:18:07;;;;;;;1.58;1.27;;;;;;;16.10;44.58;92606.09;4945041;28;20046;-91
2024/01/07 10:20:33;;;;;;;2.40;1.80;;;;;;;16.11;44.67;92599.38;4962855;28;20046;-91
2024/01/07 10:23:01;;;;;;;1.95;1.48;;;;;;;16.11;44.59;92607.56;4920141;29;20099;-92
2024/01/07 10:25:28;;;;;;;2.00;1.48;;;;;;;16.11;44.63;92599.38;4890648;29;20082;-92
2024/01/07 10:27:54;;;;;;;2.33;1.60;;;;;;;16.15;44.64;92595.63;4876252;29;20048;-91
2024/01/07 10:30:22;;;;;;;1.70;1.55;;;;;;;16.15;44.44;92598.38;4901108;29;20037;-91
2024/01/07 10:32:49;;;;;;;2.15;1.42;;;;;;;16.11;45.03;92607.56;4889031;29;20037;-91
2024/01/07 10:35:28;;;;;;;2.97;1.65;;;;;;;16.13;44.62;92609.03;4924855;29;20107;-91
2024/01/07 10:37:56;;;;;;;2.45;2.03;;;;;;;16.18;44.25;92608.97;4916966;29;20101;-91
2024/01/07 10:40:22;;;;;;;3.42;2.03;;;;;;;16.17;44.13;92612.22;4910251;29;20054;-91
2024/01/07 10:42:50;;;;;;;1.70;1.17;;;;;;;16.18;44.36;92600.81;4882742;29;20029;-91
2024/01/07 10:45:23;;;;;;;2.28;1.50;;;;;;;16.17;44.88;92609.50;4893742;29;20512;-91
2024/01/07 10:47:53;;;;;;;2.08;1.63;;;;;;;16.11;44.55;92613.03;4880540;29;20101;-91
2024/01/07 10:50:20;;;;;;;2.38;1.80;;;;;;;16.13;44.71;92617.22;4886111;29;20045;-91
2024/01/07 10:52:58;;;;;;;2.00;1.55;;;;;;;16.11;44.70;92606.84;4861948;29;20097;-91
2024/01/07 10:55:26;;;;;;;3.45;1.92;;;;;;;16.15;44.73;92612.72;4959808;28;20051;-91
2024/01/07 10:57:52;;;;;;;3.28;1.70;;;;;;;16.21;44.32;92618.13;4932839;29;20065;-91
2024/01/07 11:00:19;;;;;;;1.52;1.42;;;;;;;16.09;44.86;92615.53;4924011;29;20047;-90
2024/01/07 11:03:02;;;;;;;3.20;1.85;;;;;;;16.08;44.94;92626.94;4935568;29;20406;-91
2024/01/07 11:06:02;;;;;;;1.73;1.30;;;;;;;16.07;44.88;92630.91;4925660;29;20071;-91
2024/01/07 11:08:54;;;;;;;2.88;1.67;;;;;;;16.14;44.69;92621.44;4896133;29;20056;-91
2024/01/07 11:11:32;;;;;;;2.38;1.48;;;;;;;16.12;44.49;92621.94;4922184;29;20039;-92
2024/01/07 11:13:58;;;;;;;3.03;1.90;;;;;;;16.13;44.53;92623.41;4935216;29;20064;-91
2024/01/07 11:16:43;;;;;;;1.40;1.30;;;;;;;16.16;44.07;92622.38;4908228;29;20052;-91
2024/01/07 11:19:09;;;;;;;2.65;1.80;;;;;;;16.13;45.13;92614.50;4915964;29;20056;-91
2024/01/07 11:21:35;;;;;;;2.42;1.40;;;;;;;16.19;44.92;92626.09;4954175;28;20039;-92
2024/01/07 11:24:00;;;;;;;2.15;1.45;;;;;;;16.11;44.75;92618.47;4937139;29;20039;-91
2024/01/07 11:26:29;;;;;;;3.58;2.17;;;;;;;16.10;44.90;92625.19;4952689;28;20047;-91
2024/01/07 11:28:56;;;;;;;3.03;1.95;;;;;;;16.17;44.39;92629.31;4970340;28;20038;-91
2024/01/07 11:31:39;;;;;;;3.38;1.90;;;;;;;16.05;44.63;92623.25;4930879;28;20046;-92
2024/01/07 11:34:06;;;;;;;1.60;1.45;;;;;;;16.03;44.69;92623.03;4953256;29;20784;-92
2024/01/07 11:36:36;;;;;;;2.15;1.55;;;;;;;16.04;44.78;92618.31;4978690;28;20041;-92
2024/01/07 11:39:03;;;;;;;2.10;1.70;;;;;;;16.11;44.57;92621.19;4990246;28;20044;-91
2024/01/07 11:41:30;;;;;;;2.63;1.90;;;;;;;16.04;44.60;92621.78;5069914;28;20527;-91
2024/01/07 11:44:04;;;;;;;2.75;1.60;;;;;;;16.02;44.58;92615.38;5056639;28;20059;-91